Kobe Express — JG5504 — position and weather

sailwx.info

Track history (hours):
 
Tides and Currents Weather Stations Pressure Air Temp Water Temp Dewpoint Dewpoint Depression Visibility Wind Speed Wind Dir Waves Ship Positions

Kobe Express

Last reported at 2018-Jul-21 08:00 UTC. Time now 2018-Jul-21 07:57 UTC.
Position N 34°41' E 135°12'.

Length 170 m; draft 6.5 m.

Type: Passenger vessel. MMSI: 431301684.

Date/timePositionNaut miles runAvg speedWind from/ knotsBaromVisibWave heightAir tempDewpointWater temp
2018-Jul-21 08:00N 34°41' E 135°12'0 0.0
2018-Jul-21 07:30N 34°41' E 135°12'0 0.0
2018-Jul-21 07:00N 34°41' E 135°12'0 0.0
2018-Jul-21 06:30N 34°41' E 135°12'0 0.0
2018-Jul-21 06:00N 34°41' E 135°12'0 0.0
2018-Jul-21 05:30N 34°41' E 135°12'0 0.0
2018-Jul-21 05:00N 34°41' E 135°12'0 0.0
2018-Jul-21 04:30N 34°41' E 135°12'0 0.0
2018-Jul-21 04:00N 34°41' E 135°12'0 0.0
2018-Jul-21 03:30N 34°41' E 135°12'0 0.0
2018-Jul-21 02:57N 34°41' E 135°12'0 0.0
2018-Jul-21 02:30N 34°41' E 135°12'0 0.0
2018-Jul-21 02:00N 34°41' E 135°12'0 0.0
2018-Jul-21 01:30N 34°41' E 135°12'0 0.0
2018-Jul-21 01:00N 34°41' E 135°12'0 0.0
2018-Jul-21 00:30N 34°41' E 135°12'0 0.0
2018-Jul-21 00:00N 34°41' E 135°12'0 0.0
2018-Jul-20 23:27N 34°41' E 135°12'0 0.0
2018-Jul-20 23:00N 34°41' E 135°12'0 0.0
2018-Jul-20 22:30N 34°41' E 135°12'1 2.9
2018-Jul-20 22:00N 34°39' E 135°11'919.0
2018-Jul-20 21:30N 34°31' E 135°08'1122.2
2018-Jul-20 21:00N 34°21' E 135°01'1122.7
2018-Jul-20 20:31N 34°10' E 134°58'1223.6
2018-Jul-20 20:01N 33°58' E 134°55'1222.4
2018-Jul-20 19:27N 33°47' E 134°51'1022.8
2018-Jul-20 19:00N 33°39' E 134°44'3 0.1
2018-Jul-19 13:26N 33°41' E 134°43'1021.2
2018-Jul-19 12:58N 33°49' E 134°50'1020.7
2018-Jul-19 12:30N 33°58' E 134°54'1020.8
2018-Jul-19 12:01N 34°08' E 134°57'1122.3
2018-Jul-19 11:30N 34°19' E 134°58'1121.6
2018-Jul-19 11:00N 34°29' E 135°04'1020.6
2018-Jul-19 10:30N 34°37' E 135°11'4 7.2
2018-Jul-19 10:00N 34°41' E 135°12'0 0.0
2018-Jul-19 09:30N 34°41' E 135°12'0 0.0
2018-Jul-19 09:00N 34°41' E 135°12'0 0.0
2018-Jul-19 08:30N 34°41' E 135°12'0 0.0
2018-Jul-19 08:00N 34°41' E 135°12'0 0.0
2018-Jul-19 07:30N 34°41' E 135°12'0 0.0
2018-Jul-19 07:00N 34°41' E 135°12'0 0.0
2018-Jul-19 06:30N 34°41' E 135°12'0 0.0
2018-Jul-19 06:00N 34°41' E 135°12'0 0.0
2018-Jul-19 05:30N 34°41' E 135°12'0 0.0
2018-Jul-19 05:00N 34°41' E 135°12'0 0.0
2018-Jul-19 04:30N 34°41' E 135°12'0 0.0
2018-Jul-19 04:00N 34°41' E 135°12'0 0.0
2018-Jul-19 03:30N 34°41' E 135°12'0 0.0
2018-Jul-19 03:00N 34°41' E 135°12'0 0.0
2018-Jul-19 02:30N 34°41' E 135°12'0 0.0
2018-Jul-19 02:00N 34°41' E 135°12'0 0.0
2018-Jul-19 01:30N 34°41' E 135°12'0 0.0
2018-Jul-19 01:00N 34°41' E 135°12'0 0.0
2018-Jul-19 00:30N 34°41' E 135°12'0 0.0
2018-Jul-19 00:00N 34°41' E 135°12'0 0.0
2018-Jul-18 23:30N 34°41' E 135°12'0 0.0
2018-Jul-18 23:00N 34°41' E 135°12'0 0.0
2018-Jul-18 22:30N 34°41' E 135°12'1 3.0
2018-Jul-18 22:00N 34°40' E 135°11'1019.9
2018-Jul-18 21:30N 34°31' E 135°06'1122.2
2018-Jul-18 21:00N 34°20' E 135°01'1020.8
2018-Jul-18 20:31N 34°10' E 134°59'1223.2
2018-Jul-18 20:01N 33°59' E 134°57'1222.7
2018-Jul-18 19:29N 33°48' E 134°52'1122.8
2018-Jul-18 19:00N 33°39' E 134°43'16 0.6
2018-Jul-17 14:17N 33°27' E 134°29'621.4
2018-Jul-17 14:00N 33°32' E 134°33'1121.5
2018-Jul-17 13:29N 33°41' E 134°42'1021.3
2018-Jul-17 13:00N 33°49' E 134°50'1020.4
2018-Jul-17 12:30N 33°58' E 134°54'1020.9
2018-Jul-17 12:00N 34°09' E 134°56'1121.5
2018-Jul-17 11:30N 34°19' E 134°58'1020.5
2018-Jul-17 11:00N 34°28' E 135°04'1020.9
2018-Jul-17 10:30N 34°37' E 135°11'4 7.5
2018-Jul-17 10:00N 34°41' E 135°12'0 0.0
2018-Jul-17 09:30N 34°41' E 135°12'0 0.0
2018-Jul-17 09:00N 34°41' E 135°12'0 0.0
2018-Jul-17 08:30N 34°41' E 135°12'0 0.0
2018-Jul-17 08:00N 34°41' E 135°12'0 0.0
2018-Jul-17 07:30N 34°41' E 135°12'0 0.0
2018-Jul-17 07:00N 34°41' E 135°12'0 0.0
2018-Jul-17 06:30N 34°41' E 135°12'0 0.0
2018-Jul-17 06:00N 34°41' E 135°12'0 0.0
2018-Jul-17 05:30N 34°41' E 135°12'0 0.0
2018-Jul-17 05:00N 34°41' E 135°12'0 0.0
2018-Jul-17 04:30N 34°41' E 135°12'0 0.0
2018-Jul-17 04:00N 34°41' E 135°12'0 0.0
2018-Jul-17 03:30N 34°41' E 135°12'0 0.0
2018-Jul-17 03:00N 34°41' E 135°12'0 0.0
2018-Jul-17 02:30N 34°41' E 135°12'0 0.0
2018-Jul-17 02:00N 34°41' E 135°12'0 0.0
2018-Jul-17 01:30N 34°41' E 135°12'0 0.0
2018-Jul-17 01:00N 34°41' E 135°12'0 0.0
2018-Jul-17 00:30N 34°41' E 135°12'0 0.0
2018-Jul-16 23:30N 34°41' E 135°12'0 0.0
2018-Jul-16 23:00N 34°41' E 135°12'0 0.0
2018-Jul-16 22:29N 34°41' E 135°12'2 4.2
2018-Jul-16 22:00N 34°39' E 135°11'1121.3
2018-Jul-16 21:30N 34°29' E 135°07'1122.0
2018-Jul-16 21:00N 34°19' E 135°00'1020.8
2018-Jul-16 20:30N 34°09' E 134°59'1122.9
2018-Jul-16 20:01N 33°58' E 134°56'1122.4
2018-Jul-16 19:31N 33°47' E 134°51'1121.9
2018-Jul-16 19:00N 33°39' E 134°43'1622.6
2018-Jul-16 18:18N 33°27' E 134°30'722.7
2018-Jul-16 17:59N 33°22' E 134°24'4 0.1
2018-Jul-15 13:47N 33°25' E 134°27'519.2
2018-Jul-15 13:31N 33°29' E 134°31'1018.4
2018-Jul-15 12:59N 33°36' E 134°39'918.5
2018-Jul-15 12:30N 33°43' E 134°46'918.3
2018-Jul-15 12:01N 33°50' E 134°52'918.7
2018-Jul-15 11:31N 33°60' E 134°54'918.7
2018-Jul-15 11:01N 34°09' E 134°57'918.4
2018-Jul-15 10:30N 34°18' E 134°59'917.9
2018-Jul-15 10:00N 34°26' E 135°03'1020.2
2018-Jul-15 09:31N 34°35' E 135°09'713.4
2018-Jul-15 09:01N 34°41' E 135°12'0 0.0
2018-Jul-15 08:30N 34°41' E 135°12'0 0.0
2018-Jul-15 08:01N 34°41' E 135°12'0 0.0
2018-Jul-15 07:30N 34°41' E 135°12'0 0.0
2018-Jul-15 07:01N 34°41' E 135°12'0 0.0
2018-Jul-15 06:30N 34°41' E 135°12'0 0.0
2018-Jul-15 06:00N 34°41' E 135°12'0 0.0
2018-Jul-15 05:30N 34°41' E 135°12'0 0.0
2018-Jul-15 05:00N 34°41' E 135°12'0 0.0
2018-Jul-15 04:30N 34°41' E 135°12'0 0.0
2018-Jul-15 04:00N 34°41' E 135°12'0 0.0
2018-Jul-15 03:30N 34°41' E 135°12'0 0.0
2018-Jul-15 03:00N 34°41' E 135°12'0 0.0
2018-Jul-15 02:30N 34°41' E 135°12'0 0.0
2018-Jul-15 02:00N 34°41' E 135°12'0 0.0
2018-Jul-15 01:30N 34°41' E 135°12'0 0.0
2018-Jul-15 01:00N 34°41' E 135°12'0 0.0
2018-Jul-15 00:30N 34°41' E 135°12'0 0.0
2018-Jul-15 00:00N 34°41' E 135°12'0 0.0
2018-Jul-14 23:30N 34°41' E 135°12'0 0.0
2018-Jul-14 23:00N 34°41' E 135°12'0 0.0
2018-Jul-14 22:30N 34°41' E 135°12'2 3.0
2018-Jul-14 22:00N 34°39' E 135°11'1019.2
2018-Jul-14 21:31N 34°30' E 135°08'1122.0
2018-Jul-14 21:01N 34°21' E 135°01'1020.8
2018-Jul-14 20:30N 34°10' E 134°60'1122.8
2018-Jul-14 20:01N 33°59' E 134°57'2022.6
2018-Jul-14 19:07N 33°42' E 134°45'1 0.0
2018-Jul-13 13:30N 33°41' E 134°44'1020.5
2018-Jul-13 13:00N 33°49' E 134°52'1121.8
2018-Jul-13 12:31N 33°60' E 134°55'1121.3
2018-Jul-13 12:01N 34°10' E 134°57'1019.6
2018-Jul-13 11:31N 34°20' E 134°58'1020.1
2018-Jul-13 11:01N 34°29' E 135°04'1020.5
2018-Jul-13 10:31N 34°37' E 135°11'4 6.8
2018-Jul-13 09:59N 34°41' E 135°12'0 0.0
2018-Jul-13 09:30N 34°41' E 135°12'0 0.0
2018-Jul-13 09:00N 34°41' E 135°12'0 0.0
2018-Jul-13 08:30N 34°41' E 135°12'0 0.0
2018-Jul-13 08:00N 34°41' E 135°12'0 0.0
2018-Jul-13 07:30N 34°41' E 135°12'0 0.0
2018-Jul-13 07:00N 34°41' E 135°12'0 0.0
2018-Jul-13 06:30N 34°41' E 135°12'0 0.0
2018-Jul-13 06:00N 34°41' E 135°12'0 0.0
2018-Jul-13 05:30N 34°41' E 135°12'0 0.0
2018-Jul-13 05:00N 34°41' E 135°12'0 0.0
2018-Jul-13 04:30N 34°41' E 135°12'0 0.0
2018-Jul-13 04:00N 34°41' E 135°12'0 0.0
2018-Jul-13 03:30N 34°41' E 135°12'0 0.0
2018-Jul-13 03:00N 34°41' E 135°12'0 0.0
2018-Jul-13 02:30N 34°41' E 135°12'0 0.0
2018-Jul-13 02:00N 34°41' E 135°12'0 0.0
2018-Jul-13 01:30N 34°41' E 135°12'0 0.0
2018-Jul-13 01:00N 34°41' E 135°12'0 0.0
2018-Jul-13 00:30N 34°41' E 135°12'0 0.0
2018-Jul-13 00:00N 34°41' E 135°12'0 0.0
2018-Jul-12 23:30N 34°41' E 135°12'0 0.0
2018-Jul-12 23:00N 34°41' E 135°12'0 0.0
2018-Jul-12 22:30N 34°41' E 135°12'2 3.1
2018-Jul-12 22:00N 34°39' E 135°11'1019.1
2018-Jul-12 21:30N 34°31' E 135°07'1121.6
2018-Jul-12 21:00N 34°21' E 135°01'1020.9
2018-Jul-12 20:30N 34°11' E 134°58'1121.6
2018-Jul-12 20:00N 34°00' E 134°56'1122.1
2018-Jul-12 19:30N 33°50' E 134°52'1121.7
2018-Jul-12 19:00N 33°41' E 134°44'1 0.0
2018-Jul-11 13:34N 33°41' E 134°43'119.4
2018-Jul-11 13:30N 33°42' E 134°44'1020.1
2018-Jul-11 13:00N 33°49' E 134°52'1121.0
2018-Jul-11 12:30N 34°00' E 134°53'1021.4
2018-Jul-11 12:01N 34°10' E 134°57'1020.4
2018-Jul-11 11:30N 34°20' E 134°59'1020.1
2018-Jul-11 11:01N 34°29' E 135°03'1020.3
2018-Jul-11 10:30N 34°38' E 135°10'3 6.7
2018-Jul-11 10:00N 34°41' E 135°12'0 0.0
2018-Jul-11 09:30N 34°41' E 135°12'0 0.0
2018-Jul-11 09:00N 34°41' E 135°12'0 0.0
2018-Jul-11 08:30N 34°41' E 135°12'0 0.0
2018-Jul-11 08:00N 34°41' E 135°12'  
Track history (hours):
 
Tides and Currents Weather Stations Pressure Air Temp Water Temp Dewpoint Dewpoint Depression Visibility Wind Speed Wind Dir Waves Ship Positions

Kobe Express

Last reported at 2018-Jul-21 08:00 UTC. Time now 2018-Jul-21 07:57 UTC.
Position N 34°41' E 135°12'.

Length 170 m; draft 6.5 m.

Type: Passenger vessel. MMSI: 431301684.

Date/timePositionNaut miles runAvg speedWind from/ knotsBaromVisibWave heightAir tempDewpointWater temp
2018-Jul-21 08:00N 34°41' E 135°12'0 0.0
2018-Jul-21 07:30N 34°41' E 135°12'0 0.0
2018-Jul-21 07:00N 34°41' E 135°12'0 0.0
2018-Jul-21 06:30N 34°41' E 135°12'0 0.0
2018-Jul-21 06:00N 34°41' E 135°12'0 0.0
2018-Jul-21 05:30N 34°41' E 135°12'0 0.0
2018-Jul-21 05:00N 34°41' E 135°12'0 0.0
2018-Jul-21 04:30N 34°41' E 135°12'0 0.0
2018-Jul-21 04:00N 34°41' E 135°12'0 0.0
2018-Jul-21 03:30N 34°41' E 135°12'0 0.0
2018-Jul-21 02:57N 34°41' E 135°12'0 0.0
2018-Jul-21 02:30N 34°41' E 135°12'0 0.0
2018-Jul-21 02:00N 34°41' E 135°12'0 0.0
2018-Jul-21 01:30N 34°41' E 135°12'0 0.0
2018-Jul-21 01:00N 34°41' E 135°12'0 0.0
2018-Jul-21 00:30N 34°41' E 135°12'0 0.0
2018-Jul-21 00:00N 34°41' E 135°12'0 0.0
2018-Jul-20 23:27N 34°41' E 135°12'0 0.0
2018-Jul-20 23:00N 34°41' E 135°12'0 0.0
2018-Jul-20 22:30N 34°41' E 135°12'1 2.9
2018-Jul-20 22:00N 34°39' E 135°11'919.0
2018-Jul-20 21:30N 34°31' E 135°08'1122.2
2018-Jul-20 21:00N 34°21' E 135°01'1122.7
2018-Jul-20 20:31N 34°10' E 134°58'1223.6
2018-Jul-20 20:01N 33°58' E 134°55'1222.4
2018-Jul-20 19:27N 33°47' E 134°51'1022.8
2018-Jul-20 19:00N 33°39' E 134°44'3 0.1
2018-Jul-19 13:26N 33°41' E 134°43'1021.2
2018-Jul-19 12:58N 33°49' E 134°50'1020.7
2018-Jul-19 12:30N 33°58' E 134°54'1020.8
2018-Jul-19 12:01N 34°08' E 134°57'1122.3
2018-Jul-19 11:30N 34°19' E 134°58'1121.6
2018-Jul-19 11:00N 34°29' E 135°04'1020.6
2018-Jul-19 10:30N 34°37' E 135°11'4 7.2
2018-Jul-19 10:00N 34°41' E 135°12'0 0.0
2018-Jul-19 09:30N 34°41' E 135°12'0 0.0
2018-Jul-19 09:00N 34°41' E 135°12'0 0.0
2018-Jul-19 08:30N 34°41' E 135°12'0 0.0
2018-Jul-19 08:00N 34°41' E 135°12'0 0.0
2018-Jul-19 07:30N 34°41' E 135°12'0 0.0
2018-Jul-19 07:00N 34°41' E 135°12'0 0.0
2018-Jul-19 06:30N 34°41' E 135°12'0 0.0
2018-Jul-19 06:00N 34°41' E 135°12'0 0.0
2018-Jul-19 05:30N 34°41' E 135°12'0 0.0
2018-Jul-19 05:00N 34°41' E 135°12'0 0.0
2018-Jul-19 04:30N 34°41' E 135°12'0 0.0
2018-Jul-19 04:00N 34°41' E 135°12'0 0.0
2018-Jul-19 03:30N 34°41' E 135°12'0 0.0
2018-Jul-19 03:00N 34°41' E 135°12'0 0.0
2018-Jul-19 02:30N 34°41' E 135°12'0 0.0
2018-Jul-19 02:00N 34°41' E 135°12'0 0.0
2018-Jul-19 01:30N 34°41' E 135°12'0 0.0
2018-Jul-19 01:00N 34°41' E 135°12'0 0.0
2018-Jul-19 00:30N 34°41' E 135°12'0 0.0
2018-Jul-19 00:00N 34°41' E 135°12'0 0.0
2018-Jul-18 23:30N 34°41' E 135°12'0 0.0
2018-Jul-18 23:00N 34°41' E 135°12'0 0.0
2018-Jul-18 22:30N 34°41' E 135°12'1 3.0
2018-Jul-18 22:00N 34°40' E 135°11'1019.9
2018-Jul-18 21:30N 34°31' E 135°06'1122.2
2018-Jul-18 21:00N 34°20' E 135°01'1020.8
2018-Jul-18 20:31N 34°10' E 134°59'1223.2
2018-Jul-18 20:01N 33°59' E 134°57'1222.7
2018-Jul-18 19:29N 33°48' E 134°52'1122.8
2018-Jul-18 19:00N 33°39' E 134°43'16 0.6
2018-Jul-17 14:17N 33°27' E 134°29'621.4
2018-Jul-17 14:00N 33°32' E 134°33'1121.5
2018-Jul-17 13:29N 33°41' E 134°42'1021.3
2018-Jul-17 13:00N 33°49' E 134°50'1020.4
2018-Jul-17 12:30N 33°58' E 134°54'1020.9
2018-Jul-17 12:00N 34°09' E 134°56'1121.5
2018-Jul-17 11:30N 34°19' E 134°58'1020.5
2018-Jul-17 11:00N 34°28' E 135°04'1020.9
2018-Jul-17 10:30N 34°37' E 135°11'4 7.5
2018-Jul-17 10:00N 34°41' E 135°12'0 0.0
2018-Jul-17 09:30N 34°41' E 135°12'0 0.0
2018-Jul-17 09:00N 34°41' E 135°12'0 0.0
2018-Jul-17 08:30N 34°41' E 135°12'0 0.0
2018-Jul-17 08:00N 34°41' E 135°12'0 0.0
2018-Jul-17 07:30N 34°41' E 135°12'0 0.0
2018-Jul-17 07:00N 34°41' E 135°12'0 0.0
2018-Jul-17 06:30N 34°41' E 135°12'0 0.0
2018-Jul-17 06:00N 34°41' E 135°12'0 0.0
2018-Jul-17 05:30N 34°41' E 135°12'0 0.0
2018-Jul-17 05:00N 34°41' E 135°12'0 0.0
2018-Jul-17 04:30N 34°41' E 135°12'0 0.0
2018-Jul-17 04:00N 34°41' E 135°12'0 0.0
2018-Jul-17 03:30N 34°41' E 135°12'0 0.0
2018-Jul-17 03:00N 34°41' E 135°12'0 0.0
2018-Jul-17 02:30N 34°41' E 135°12'0 0.0
2018-Jul-17 02:00N 34°41' E 135°12'0 0.0
2018-Jul-17 01:30N 34°41' E 135°12'0 0.0
2018-Jul-17 01:00N 34°41' E 135°12'0 0.0
2018-Jul-17 00:30N 34°41' E 135°12'0 0.0
2018-Jul-16 23:30N 34°41' E 135°12'0 0.0
2018-Jul-16 23:00N 34°41' E 135°12'0 0.0
2018-Jul-16 22:29N 34°41' E 135°12'2 4.2
2018-Jul-16 22:00N 34°39' E 135°11'1121.3
2018-Jul-16 21:30N 34°29' E 135°07'1122.0
2018-Jul-16 21:00N 34°19' E 135°00'1020.8
2018-Jul-16 20:30N 34°09' E 134°59'1122.9
2018-Jul-16 20:01N 33°58' E 134°56'1122.4
2018-Jul-16 19:31N 33°47' E 134°51'1121.9
2018-Jul-16 19:00N 33°39' E 134°43'1622.6
2018-Jul-16 18:18N 33°27' E 134°30'722.7
2018-Jul-16 17:59N 33°22' E 134°24'4 0.1
2018-Jul-15 13:47N 33°25' E 134°27'519.2
2018-Jul-15 13:31N 33°29' E 134°31'1018.4
2018-Jul-15 12:59N 33°36' E 134°39'918.5
2018-Jul-15 12:30N 33°43' E 134°46'918.3
2018-Jul-15 12:01N 33°50' E 134°52'918.7
2018-Jul-15 11:31N 33°60' E 134°54'918.7
2018-Jul-15 11:01N 34°09' E 134°57'918.4
2018-Jul-15 10:30N 34°18' E 134°59'917.9
2018-Jul-15 10:00N 34°26' E 135°03'1020.2
2018-Jul-15 09:31N 34°35' E 135°09'713.4
2018-Jul-15 09:01N 34°41' E 135°12'0 0.0
2018-Jul-15 08:30N 34°41' E 135°12'0 0.0
2018-Jul-15 08:01N 34°41' E 135°12'0 0.0
2018-Jul-15 07:30N 34°41' E 135°12'0 0.0
2018-Jul-15 07:01N 34°41' E 135°12'0 0.0
2018-Jul-15 06:30N 34°41' E 135°12'0 0.0
2018-Jul-15 06:00N 34°41' E 135°12'0 0.0
2018-Jul-15 05:30N 34°41' E 135°12'0 0.0
2018-Jul-15 05:00N 34°41' E 135°12'0 0.0
2018-Jul-15 04:30N 34°41' E 135°12'0 0.0
2018-Jul-15 04:00N 34°41' E 135°12'0 0.0
2018-Jul-15 03:30N 34°41' E 135°12'0 0.0
2018-Jul-15 03:00N 34°41' E 135°12'0 0.0
2018-Jul-15 02:30N 34°41' E 135°12'0 0.0
2018-Jul-15 02:00N 34°41' E 135°12'0 0.0
2018-Jul-15 01:30N 34°41' E 135°12'0 0.0
2018-Jul-15 01:00N 34°41' E 135°12'0 0.0
2018-Jul-15 00:30N 34°41' E 135°12'0 0.0
2018-Jul-15 00:00N 34°41' E 135°12'0 0.0
2018-Jul-14 23:30N 34°41' E 135°12'0 0.0
2018-Jul-14 23:00N 34°41' E 135°12'0 0.0
2018-Jul-14 22:30N 34°41' E 135°12'2 3.0
2018-Jul-14 22:00N 34°39' E 135°11'1019.2
2018-Jul-14 21:31N 34°30' E 135°08'1122.0
2018-Jul-14 21:01N 34°21' E 135°01'1020.8
2018-Jul-14 20:30N 34°10' E 134°60'1122.8
2018-Jul-14 20:01N 33°59' E 134°57'2022.6
2018-Jul-14 19:07N 33°42' E 134°45'1 0.0
2018-Jul-13 13:30N 33°41' E 134°44'1020.5
2018-Jul-13 13:00N 33°49' E 134°52'1121.8
2018-Jul-13 12:31N 33°60' E 134°55'1121.3
2018-Jul-13 12:01N 34°10' E 134°57'1019.6
2018-Jul-13 11:31N 34°20' E 134°58'1020.1
2018-Jul-13 11:01N 34°29' E 135°04'1020.5
2018-Jul-13 10:31N 34°37' E 135°11'4 6.8
2018-Jul-13 09:59N 34°41' E 135°12'0 0.0
2018-Jul-13 09:30N 34°41' E 135°12'0 0.0
2018-Jul-13 09:00N 34°41' E 135°12'0 0.0
2018-Jul-13 08:30N 34°41' E 135°12'0 0.0
2018-Jul-13 08:00N 34°41' E 135°12'0 0.0
2018-Jul-13 07:30N 34°41' E 135°12'0 0.0
2018-Jul-13 07:00N 34°41' E 135°12'0 0.0
2018-Jul-13 06:30N 34°41' E 135°12'0 0.0
2018-Jul-13 06:00N 34°41' E 135°12'0 0.0
2018-Jul-13 05:30N 34°41' E 135°12'0 0.0
2018-Jul-13 05:00N 34°41' E 135°12'0 0.0
2018-Jul-13 04:30N 34°41' E 135°12'0 0.0
2018-Jul-13 04:00N 34°41' E 135°12'0 0.0
2018-Jul-13 03:30N 34°41' E 135°12'0 0.0
2018-Jul-13 03:00N 34°41' E 135°12'0 0.0
2018-Jul-13 02:30N 34°41' E 135°12'0 0.0
2018-Jul-13 02:00N 34°41' E 135°12'0 0.0
2018-Jul-13 01:30N 34°41' E 135°12'0 0.0
2018-Jul-13 01:00N 34°41' E 135°12'0 0.0
2018-Jul-13 00:30N 34°41' E 135°12'0 0.0
2018-Jul-13 00:00N 34°41' E 135°12'0 0.0
2018-Jul-12 23:30N 34°41' E 135°12'0 0.0
2018-Jul-12 23:00N 34°41' E 135°12'0 0.0
2018-Jul-12 22:30N 34°41' E 135°12'2 3.1
2018-Jul-12 22:00N 34°39' E 135°11'1019.1
2018-Jul-12 21:30N 34°31' E 135°07'1121.6
2018-Jul-12 21:00N 34°21' E 135°01'1020.9
2018-Jul-12 20:30N 34°11' E 134°58'1121.6
2018-Jul-12 20:00N 34°00' E 134°56'1122.1
2018-Jul-12 19:30N 33°50' E 134°52'1121.7
2018-Jul-12 19:00N 33°41' E 134°44'1 0.0
2018-Jul-11 13:34N 33°41' E 134°43'119.4
2018-Jul-11 13:30N 33°42' E 134°44'1020.1
2018-Jul-11 13:00N 33°49' E 134°52'1121.0
2018-Jul-11 12:30N 34°00' E 134°53'1021.4
2018-Jul-11 12:01N 34°10' E 134°57'1020.4
2018-Jul-11 11:30N 34°20' E 134°59'1020.1
2018-Jul-11 11:01N 34°29' E 135°03'1020.3
2018-Jul-11 10:30N 34°38' E 135°10'3 6.7
2018-Jul-11 10:00N 34°41' E 135°12'0 0.0
2018-Jul-11 09:30N 34°41' E 135°12'0 0.0
2018-Jul-11 09:00N 34°41' E 135°12'0 0.0
2018-Jul-11 08:30N 34°41' E 135°12'0 0.0
2018-Jul-11 08:00N 34°41' E 135°12'  

Dump ship's entire track history